Time;durP1;ratioP1;P1;durP2;ratioP2;P2;SDS_P1;SDS_P2;PMS_P1;PMS_P2;Temp;Humidity;BMP_temperature;BMP_pressure;BME280_temperature;BME280_humidity;BME280_pressure;Samples;Min_cycle;Max_cycle;Signal;HPM_P1;HPM_P2
2024/01/24 00:00:32;;;;;;;;;;;;;;;;;;5128451;28;20377;-45
2024/01/24 00:02:58;;;;;;;;;;;;;;;;;;5128419;28;19989;-44
2024/01/24 00:05:23;;;;;;;;;;;;;;;;;;5128566;28;19931;-45
2024/01/24 00:07:48;;;;;;;;;;;;;;;;;;5127900;28;19977;-45
2024/01/24 00:10:14;;;;;;;;;;;;;;;;;;5128204;28;19967;-44
2024/01/24 00:12:39;;;;;;;;;;;;;;;;;;5127987;28;19930;-43
2024/01/24 00:15:05;;;;;;;;;;;;;;;;;;5127887;28;19974;-44
2024/01/24 00:17:30;;;;;;;;;;;;;;;;;;5127034;28;19992;-46
2024/01/24 00:19:56;;;;;;;;;;;;;;;;;;5126840;28;19927;-44
2024/01/24 00:22:21;;;;;;;;;;;;;;;;;;5127386;28;19966;-44
2024/01/24 00:24:46;;;;;;;;;;;;;;;;;;5126275;28;19978;-43
2024/01/24 00:27:12;;;;;;;;;;;;;;;;;;5126730;28;20020;-44
2024/01/24 00:29:38;;;;;;;;;;;;;;;;;;5126644;28;20359;-44
2024/01/24 00:32:03;;;;;;;;;;;;;;;;;;5126794;28;19939;-44
2024/01/24 00:34:29;;;;;;;;;;;;;;;;;;5126956;28;20046;-45
2024/01/24 00:36:55;;;;;;;;;;;;;;;;;;5127359;28;19923;-43
2024/01/24 00:39:20;;;;;;;;;;;;;;;;;;5127592;28;21337;-44
2024/01/24 00:41:46;;;;;;;;;;;;;;;;;;5127239;28;19950;-46
2024/01/24 00:44:12;;;;;;;;;;;;;;;;;;5127470;28;19974;-46
2024/01/24 00:46:37;;;;;;;;;;;;;;;;;;5127033;27;19984;-46
2024/01/24 00:49:03;;;;;;;;;;;;;;;;;;5126581;28;20030;-45
2024/01/24 00:51:28;;;;;;;;;;;;;;;;;;5127130;28;20315;-44
2024/01/24 00:53:54;;;;;;;;;;;;;;;;;;5126997;28;19935;-45
2024/01/24 00:56:19;;;;;;;;;;;;;;;;;;5127350;28;19927;-45
2024/01/24 00:58:45;;;;;;;;;;;;;;;;;;5127199;28;20331;-47
2024/01/24 01:01:10;;;;;;;;;;;;;;;;;;5127498;28;19930;-45
2024/01/24 01:03:36;;;;;;;;;;;;;;;;;;5127378;28;20334;-46
2024/01/24 01:06:02;;;;;;;;;;;;;;;;;;5127381;28;19974;-44
2024/01/24 01:08:27;;;;;;;;;;;;;;;;;;5126953;28;19923;-47
2024/01/24 01:10:53;;;;;;;;;;;;;;;;;;5126100;28;19998;-47
2024/01/24 01:13:18;;;;;;;;;;;;;;;;;;5126116;28;20026;-44
2024/01/24 01:15:44;;;;;;;;;;;;;;;;;;5126122;28;19945;-44
2024/01/24 01:18:09;;;;;;;;;;;;;;;;;;5125741;28;19923;-45
2024/01/24 01:20:35;;;;;;;;;;;;;;;;;;5126198;28;20022;-44
2024/01/24 01:23:00;;;;;;;;;;;;;;;;;;5126084;28;19928;-46
2024/01/24 01:25:26;;;;;;;;;;;;;;;;;;5126675;28;20038;-44
2024/01/24 01:27:51;;;;;;;;;;;;;;;;;;5126730;28;19977;-48
2024/01/24 01:30:17;;;;;;;;;;;;;;;;;;5127106;28;20030;-46
2024/01/24 01:32:43;;;;;;;;;;;;;;;;;;5127174;28;19930;-44
2024/01/24 01:35:08;;;;;;;;;;;;;;;;;;5126863;28;19946;-47
2024/01/24 01:37:34;;;;;;;;;;;;;;;;;;5127237;28;20286;-44
2024/01/24 01:39:59;;;;;;;;;;;;;;;;;;5127009;28;19931;-44
2024/01/24 01:42:25;;;;;;;;;;;;;;;;;;5126818;28;19954;-46
2024/01/24 01:44:50;;;;;;;;;;;;;;;;;;5126724;28;19924;-46
2024/01/24 01:47:16;;;;;;;;;;;;;;;;;;5127119;28;19974;-45
2024/01/24 01:49:44;;;;;;;;;;;;;;;;;;5126703;28;19930;-46
2024/01/24 01:52:10;;;;;;;;;;;;;;;;;;5126873;28;20064;-45
2024/01/24 01:54:35;;;;;;;;;;;;;;;;;;5126266;28;20025;-44
2024/01/24 01:57:02;;;;;;;;;;;;;;;;;;5128548;27;19978;-44
2024/01/24 01:59:27;;;;;;;;;;;;;;;;;;5130150;28;19959;-44
2024/01/24 02:01:52;;;;;;;;;;;;;;;;;;5130008;28;19974;-45
2024/01/24 02:04:18;;;;;;;;;;;;;;;;;;5130077;28;19963;-44
2024/01/24 02:06:43;;;;;;;;;;;;;;;;;;5129812;28;20035;-43
2024/01/24 02:09:10;;;;;;;;;;;;;;;;;;5128729;28;20018;-44
2024/01/24 02:11:35;;;;;;;;;;;;;;;;;;5129529;28;19931;-44
2024/01/24 02:14:01;;;;;;;;;;;;;;;;;;5128808;28;20039;-47
2024/01/24 02:16:26;;;;;;;;;;;;;;;;;;5129298;28;19924;-47
2024/01/24 02:18:52;;;;;;;;;;;;;;;;;;5129523;28;20331;-43
2024/01/24 02:21:17;;;;;;;;;;;;;;;;;;5129489;28;19930;-46
2024/01/24 02:23:43;;;;;;;;;;;;;;;;;;5129518;28;20355;-44
2024/01/24 02:26:10;;;;;;;;;;;;;;;;;;5130740;28;19935;-44
2024/01/24 02:28:35;;;;;;;;;;;;;;;;;;5129756;28;19931;-44
2024/01/24 02:31:01;;;;;;;;;;;;;;;;;;5130023;28;19976;-45
2024/01/24 02:33:26;;;;;;;;;;;;;;;;;;5129861;28;19923;-45
2024/01/24 02:35:52;;;;;;;;;;;;;;;;;;5129912;28;19979;-45
2024/01/24 02:38:17;;;;;;;;;;;;;;;;;;5130047;28;19958;-44
2024/01/24 02:40:42;;;;;;;;;;;;;;;;;;5130059;28;19935;-44
2024/01/24 02:43:08;;;;;;;;;;;;;;;;;;5129767;28;20902;-45
2024/01/24 02:45:33;;;;;;;;;;;;;;;;;;5129530;28;19927;-44
2024/01/24 02:47:59;;;;;;;;;;;;;;;;;;5129785;28;20334;-44
2024/01/24 02:50:25;;;;;;;;;;;;;;;;;;5130361;28;19935;-44
2024/01/24 02:52:51;;;;;;;;;;;;;;;;;;5129347;28;19928;-43
2024/01/24 02:55:16;;;;;;;;;;;;;;;;;;5129498;28;19962;-44
2024/01/24 02:57:42;;;;;;;;;;;;;;;;;;5129109;28;20006;-44
2024/01/24 03:00:08;;;;;;;;;;;;;;;;;;5128581;28;20381;-44
2024/01/24 03:02:34;;;;;;;;;;;;;;;;;;5128235;28;20366;-46
2024/01/24 03:04:59;;;;;;;;;;;;;;;;;;5128861;28;20010;-45
2024/01/24 03:07:25;;;;;;;;;;;;;;;;;;5128835;28;20259;-44
2024/01/24 03:09:50;;;;;;;;;;;;;;;;;;5127563;27;19924;-44
2024/01/24 03:12:16;;;;;;;;;;;;;;;;;;5128302;28;19931;-44
2024/01/24 03:14:42;;;;;;;;;;;;;;;;;;5128638;28;20271;-45
2024/01/24 03:17:08;;;;;;;;;;;;;;;;;;5128850;28;19923;-46
2024/01/24 03:19:33;;;;;;;;;;;;;;;;;;5128741;28;19931;-45
2024/01/24 03:21:59;;;;;;;;;;;;;;;;;;5129303;28;20022;-45
2024/01/24 03:24:24;;;;;;;;;;;;;;;;;;5129102;28;20311;-44
2024/01/24 03:26:50;;;;;;;;;;;;;;;;;;5129187;28;20011;-46
2024/01/24 03:29:15;;;;;;;;;;;;;;;;;;5128787;28;20367;-45
2024/01/24 03:31:41;;;;;;;;;;;;;;;;;;5128758;28;20018;-44
2024/01/24 03:34:06;;;;;;;;;;;;;;;;;;5129062;28;20022;-44
2024/01/24 03:36:32;;;;;;;;;;;;;;;;;;5129600;28;20037;-44
2024/01/24 03:38:57;;;;;;;;;;;;;;;;;;5128846;28;19927;-45
2024/01/24 03:41:22;;;;;;;;;;;;;;;;;;5128779;28;20022;-43
2024/01/24 03:43:48;;;;;;;;;;;;;;;;;;5129030;28;19962;-45
2024/01/24 03:46:13;;;;;;;;;;;;;;;;;;5129019;28;20039;-45
2024/01/24 03:48:39;;;;;;;;;;;;;;;;;;5128635;28;20323;-45
2024/01/24 03:51:04;;;;;;;;;;;;;;;;;;5128168;28;20412;-47
2024/01/24 03:53:31;;;;;;;;;;;;;;;;;;5127945;28;19986;-44
2024/01/24 03:55:57;;;;;;;;;;;;;;;;;;5127446;28;19955;-44
2024/01/24 03:58:22;;;;;;;;;;;;;;;;;;5128066;28;19930;-44
2024/01/24 04:00:50;;;;;;;;;;;;;;;;;;5127008;28;20094;-46
2024/01/24 04:03:15;;;;;;;;;;;;;;;;;;5127682;28;19931;-45
2024/01/24 04:05:41;;;;;;;;;;;;;;;;;;5128125;28;19923;-45
2024/01/24 04:08:06;;;;;;;;;;;;;;;;;;5127925;28;19955;-47
2024/01/24 04:10:31;;;;;;;;;;;;;;;;;;5127987;28;19931;-44
2024/01/24 04:12:57;;;;;;;;;;;;;;;;;;5128283;28;19927;-45
2024/01/24 04:15:23;;;;;;;;;;;;;;;;;;5128712;28;19946;-47
2024/01/24 04:17:48;;;;;;;;;;;;;;;;;;5128479;28;19923;-44
2024/01/24 04:20:14;;;;;;;;;;;;;;;;;;5126535;27;19928;-44
2024/01/24 04:22:39;;;;;;;;;;;;;;;;;;5128065;28;20033;-45
2024/01/24 04:25:05;;;;;;;;;;;;;;;;;;5127885;28;20358;-44
2024/01/24 04:27:30;;;;;;;;;;;;;;;;;;5128157;28;19946;-45
2024/01/24 04:29:56;;;;;;;;;;;;;;;;;;5128136;28;19927;-47
2024/01/24 04:32:21;;;;;;;;;;;;;;;;;;5127984;27;19935;-44
2024/01/24 04:34:47;;;;;;;;;;;;;;;;;;5127761;28;20420;-46
2024/01/24 04:37:12;;;;;;;;;;;;;;;;;;5128442;28;19923;-44
2024/01/24 04:39:38;;;;;;;;;;;;;;;;;;5127732;28;19923;-44
2024/01/24 04:42:04;;;;;;;;;;;;;;;;;;5128024;28;19931;-44
2024/01/24 04:44:37;;;;;;;;;;;;;;;;;;5126930;28;20305;-44
2024/01/24 04:47:02;;;;;;;;;;;;;;;;;;5127750;28;19969;-46
2024/01/24 04:49:27;;;;;;;;;;;;;;;;;;5126142;28;20260;-44
2024/01/24 04:52:05;;;;;;;;;;;;;;;;;;5127132;28;20366;-44
2024/01/24 04:54:30;;;;;;;;;;;;;;;;;;5126570;28;19988;-45
2024/01/24 04:56:56;;;;;;;;;;;;;;;;;;5126829;28;20029;-44
2024/01/24 04:59:21;;;;;;;;;;;;;;;;;;5126990;28;19923;-44
2024/01/24 05:01:46;;;;;;;;;;;;;;;;;;5126554;28;20018;-44
2024/01/24 05:04:12;;;;;;;;;;;;;;;;;;5127473;27;20026;-45
2024/01/24 05:06:37;;;;;;;;;;;;;;;;;;5128303;28;19971;-45
2024/01/24 05:09:04;;;;;;;;;;;;;;;;;;5127118;28;20010;-44
2024/01/24 05:11:29;;;;;;;;;;;;;;;;;;5127219;28;19923;-45
2024/01/24 05:13:59;;;;;;;;;;;;;;;;;;5127502;28;20049;-44
2024/01/24 05:16:25;;;;;;;;;;;;;;;;;;5127311;28;19966;-44
2024/01/24 05:18:50;;;;;;;;;;;;;;;;;;5127083;28;19978;-44
2024/01/24 05:21:16;;;;;;;;;;;;;;;;;;5126831;28;20016;-44
2024/01/24 05:23:42;;;;;;;;;;;;;;;;;;5127054;28;20431;-44
2024/01/24 05:26:08;;;;;;;;;;;;;;;;;;5127297;28;19967;-44
2024/01/24 05:28:33;;;;;;;;;;;;;;;;;;5127217;28;20342;-46
2024/01/24 05:30:59;;;;;;;;;;;;;;;;;;5126546;27;19976;-44
2024/01/24 05:33:24;;;;;;;;;;;;;;;;;;5127359;28;20056;-45
2024/01/24 05:35:51;;;;;;;;;;;;;;;;;;5127041;28;19923;-44
2024/01/24 05:38:17;;;;;;;;;;;;;;;;;;5126926;28;19971;-45
2024/01/24 05:40:42;;;;;;;;;;;;;;;;;;5125153;28;19975;-44
2024/01/24 05:43:08;;;;;;;;;;;;;;;;;;5126231;28;20386;-44
2024/01/24 05:45:33;;;;;;;;;;;;;;;;;;5126262;28;20044;-46
2024/01/24 05:47:59;;;;;;;;;;;;;;;;;;5126154;28;19958;-43
2024/01/24 05:50:24;;;;;;;;;;;;;;;;;;5125135;28;19958;-47
2024/01/24 05:52:50;;;;;;;;;;;;;;;;;;5126168;28;19928;-43
2024/01/24 05:55:15;;;;;;;;;;;;;;;;;;5126256;28;20080;-44
2024/01/24 05:57:40;;;;;;;;;;;;;;;;;;5127090;28;19975;-43
2024/01/24 06:00:08;;;;;;;;;;;;;;;;;;5126366;28;19923;-45
2024/01/24 06:02:33;;;;;;;;;;;;;;;;;;5125526;28;19932;-48
2024/01/24 06:04:59;;;;;;;;;;;;;;;;;;5126822;28;19962;-47
2024/01/24 06:07:24;;;;;;;;;;;;;;;;;;5116001;28;20064;-47
2024/01/24 06:09:50;;;;;;;;;;;;;;;;;;5124265;28;20019;-45
2024/01/24 06:12:15;;;;;;;;;;;;;;;;;;5126408;28;20014;-46
2024/01/24 06:14:40;;;;;;;;;;;;;;;;;;5124859;28;20349;-45
2024/01/24 06:17:07;;;;;;;;;;;;;;;;;;5122897;27;19960;-45
2024/01/24 06:19:32;;;;;;;;;;;;;;;;;;5118025;27;20382;-47
2024/01/24 06:21:58;;;;;;;;;;;;;;;;;;5111472;27;20018;-45
2024/01/24 06:24:23;;;;;;;;;;;;;;;;;;5116892;27;20010;-44
2024/01/24 06:26:49;;;;;;;;;;;;;;;;;;5117852;27;19932;-45
2024/01/24 06:29:14;;;;;;;;;;;;;;;;;;5118933;27;19934;-44
2024/01/24 06:31:40;;;;;;;;;;;;;;;;;;5113227;27;20386;-46
2024/01/24 06:34:05;;;;;;;;;;;;;;;;;;5116006;27;19924;-46
2024/01/24 06:36:31;;;;;;;;;;;;;;;;;;5122001;28;20347;-45
2024/01/24 06:38:56;;;;;;;;;;;;;;;;;;5118319;28;19931;-45
2024/01/24 06:41:22;;;;;;;;;;;;;;;;;;5118838;28;19932;-46
2024/01/24 06:43:47;;;;;;;;;;;;;;;;;;5118723;27;19972;-44
2024/01/24 06:46:12;;;;;;;;;;;;;;;;;;5121833;28;20649;-43
2024/01/24 06:48:38;;;;;;;;;;;;;;;;;;5120194;28;20338;-45
2024/01/24 06:51:04;;;;;;;;;;;;;;;;;;5121990;28;19923;-44
2024/01/24 06:53:30;;;;;;;;;;;;;;;;;;5118854;28;19931;-44
2024/01/24 06:55:56;;;;;;;;;;;;;;;;;;5118484;28;19936;-44
2024/01/24 06:58:21;;;;;;;;;;;;;;;;;;5119976;28;20359;-44
2024/01/24 07:00:47;;;;;;;;;;;;;;;;;;5115388;27;20027;-45
2024/01/24 07:03:13;;;;;;;;;;;;;;;;;;5117999;27;20527;-45
2024/01/24 07:05:38;;;;;;;;;;;;;;;;;;5113377;27;19923;-48
2024/01/24 07:08:04;;;;;;;;;;;;;;;;;;5119266;27;20042;-44
2024/01/24 07:10:29;;;;;;;;;;;;;;;;;;5111846;27;20010;-46
2024/01/24 07:12:56;;;;;;;;;;;;;;;;;;5112666;27;19978;-45
2024/01/24 07:15:21;;;;;;;;;;;;;;;;;;5112681;27;20398;-44
2024/01/24 07:17:47;;;;;;;;;;;;;;;;;;5114227;27;19967;-55
2024/01/24 07:20:13;;;;;;;;;;;;;;;;;;5115929;28;19939;-59
2024/01/24 07:22:38;;;;;;;;;;;;;;;;;;5116902;27;20027;-45
2024/01/24 07:25:06;;;;;;;;;;;;;;;;;;5111755;27;20383;-42
2024/01/24 07:27:32;;;;;;;;;;;;;;;;;;5112369;27;20559;-43
2024/01/24 07:29:58;;;;;;;;;;;;;;;;;;5111018;27;19987;-44
2024/01/24 07:32:24;;;;;;;;;;;;;;;;;;5112624;27;19928;-45
2024/01/24 07:34:49;;;;;;;;;;;;;;;;;;5115960;28;20060;-42
2024/01/24 07:37:15;;;;;;;;;;;;;;;;;;5117531;27;21034;-42
2024/01/24 07:39:40;;;;;;;;;;;;;;;;;;5117069;27;19957;-43
2024/01/24 07:42:06;;;;;;;;;;;;;;;;;;5116690;27;20033;-43
2024/01/24 07:44:31;;;;;;;;;;;;;;;;;;5115215;27;20232;-43
2024/01/24 07:46:57;;;;;;;;;;;;;;;;;;5113369;27;20018;-45
2024/01/24 07:49:23;;;;;;;;;;;;;;;;;;5114177;27;20402;-43
2024/01/24 07:55:10;;;;;;;;;;;;;;;;;;5107278;27;19972;-44
2024/01/24 07:57:37;;;;;;;;;;;;;;;;;;5116443;27;20369;-44
2024/01/24 08:00:04;;;;;;;;;;;;;;;;;;5120090;27;19942;-43
2024/01/24 08:02:30;;;;;;;;;;;;;;;;;;5121095;27;19982;-43
2024/01/24 08:04:56;;;;;;;;;;;;;;;;;;5121381;28;19955;-44
2024/01/24 08:07:21;;;;;;;;;;;;;;;;;;5121349;27;20302;-43
2024/01/24 08:09:47;;;;;;;;;;;;;;;;;;5110035;27;20018;-46
2024/01/24 08:12:12;;;;;;;;;;;;;;;;;;5118489;28;19976;-43
2024/01/24 08:14:38;;;;;;;;;;;;;;;;;;5122074;28;20025;-42
2024/01/24 08:17:05;;;;;;;;;;;;;;;;;;5116747;28;19931;-45
2024/01/24 08:19:31;;;;;;;;;;;;;;;;;;5119715;28;20082;-43
2024/01/24 08:21:56;;;;;;;;;;;;;;;;;;5119358;28;19932;-44
2024/01/24 08:24:22;;;;;;;;;;;;;;;;;;5115687;27;19932;-47
2024/01/24 08:26:48;;;;;;;;;;;;;;;;;;5100217;28;19932;-47
2024/01/24 08:29:13;;;;;;;;;;;;;;;;;;5124291;28;20046;-43
2024/01/24 08:31:46;;;;;;;;;;;;;;;;;;5122180;28;20027;-45
2024/01/24 08:34:12;;;;;;;;;;;;;;;;;;5124673;28;19927;-44
2024/01/24 08:36:39;;;;;;;;;;;;;;;;;;5126929;28;20400;-43
2024/01/24 08:39:06;;;;;;;;;;;;;;;;;;5123045;28;19931;-45
2024/01/24 08:41:31;;;;;;;;;;;;;;;;;;5114008;28;20004;-42
2024/01/24 08:43:58;;;;;;;;;;;;;;;;;;5124675;28;20324;-45
2024/01/24 08:46:23;;;;;;;;;;;;;;;;;;5119231;28;19931;-44
2024/01/24 08:48:49;;;;;;;;;;;;;;;;;;5117767;28;19976;-44
2024/01/24 08:51:14;;;;;;;;;;;;;;;;;;5119585;28;20807;-43
2024/01/24 08:53:40;;;;;;;;;;;;;;;;;;5122851;28;20268;-43
2024/01/24 08:56:05;;;;;;;;;;;;;;;;;;5121993;28;20030;-42
2024/01/24 08:58:30;;;;;;;;;;;;;;;;;;5119158;28;20047;-44
2024/01/24 09:00:56;;;;;;;;;;;;;;;;;;5117289;27;20430;-43
2024/01/24 09:03:21;;;;;;;;;;;;;;;;;;5118173;28;20326;-44
2024/01/24 09:05:47;;;;;;;;;;;;;;;;;;5120526;28;19948;-43
2024/01/24 09:08:12;;;;;;;;;;;;;;;;;;5116476;28;19931;-46
2024/01/24 09:10:38;;;;;;;;;;;;;;;;;;5114148;27;19976;-44
2024/01/24 09:13:03;;;;;;;;;;;;;;;;;;5113424;27;20481;-45
2024/01/24 09:15:29;;;;;;;;;;;;;;;;;;5118825;28;19931;-42
2024/01/24 09:17:55;;;;;;;;;;;;;;;;;;5117825;28;20050;-43
2024/01/24 09:20:20;;;;;;;;;;;;;;;;;;5119633;28;19924;-43
2024/01/24 09:22:46;;;;;;;;;;;;;;;;;;5115295;28;19938;-43
2024/01/24 09:25:12;;;;;;;;;;;;;;;;;;5111807;28;19972;-45
2024/01/24 09:27:38;;;;;;;;;;;;;;;;;;5113491;28;19932;-45
2024/01/24 09:30:03;;;;;;;;;;;;;;;;;;5114920;27;19974;-45
2024/01/24 09:32:29;;;;;;;;;;;;;;;;;;5115597;28;20306;-43
2024/01/24 09:34:54;;;;;;;;;;;;;;;;;;5111302;27;20026;-42
2024/01/24 09:37:20;;;;;;;;;;;;;;;;;;5115293;27;19955;-43
2024/01/24 09:39:46;;;;;;;;;;;;;;;;;;5115087;28;19923;-43
2024/01/24 09:42:12;;;;;;;;;;;;;;;;;;5116956;27;19976;-43
2024/01/24 09:44:37;;;;;;;;;;;;;;;;;;5109469;27;20283;-43
2024/01/24 09:47:02;;;;;;;;;;;;;;;;;;5115789;27;20020;-43
2024/01/24 09:49:28;;;;;;;;;;;;;;;;;;5118547;27;19963;-46
2024/01/24 09:51:53;;;;;;;;;;;;;;;;;;5116731;28;20036;-43
2024/01/24 09:54:19;;;;;;;;;;;;;;;;;;5114726;28;20070;-44
2024/01/24 09:56:45;;;;;;;;;;;;;;;;;;5114561;27;19938;-43
2024/01/24 09:59:10;;;;;;;;;;;;;;;;;;5116512;27;19934;-43
2024/01/24 10:01:35;;;;;;;;;;;;;;;;;;5119657;28;20330;-44
2024/01/24 10:04:01;;;;;;;;;;;;;;;;;;5115912;28;19931;-44
2024/01/24 10:06:27;;;;;;;;;;;;;;;;;;5119248;27;20430;-43
2024/01/24 10:08:53;;;;;;;;;;;;;;;;;;5119794;27;19924;-44
2024/01/24 10:11:19;;;;;;;;;;;;;;;;;;5114697;28;19945;-44
2024/01/24 10:13:44;;;;;;;;;;;;;;;;;;5117426;28;20327;-44
2024/01/24 10:16:10;;;;;;;;;;;;;;;;;;5117809;28;19932;-44
2024/01/24 10:18:35;;;;;;;;;;;;;;;;;;5119025;27;19931;-45
2024/01/24 10:21:04;;;;;;;;;;;;;;;;;;5120140;28;20361;-48
2024/01/24 10:23:30;;;;;;;;;;;;;;;;;;5121367;28;19931;-45
2024/01/24 10:25:56;;;;;;;;;;;;;;;;;;5123070;27;19984;-44
2024/01/24 10:28:21;;;;;;;;;;;;;;;;;;5120261;28;20034;-44
2024/01/24 10:30:49;;;;;;;;;;;;;;;;;;5125155;28;20033;-44
2024/01/24 10:33:15;;;;;;;;;;;;;;;;;;5124172;27;19981;-46
2024/01/24 10:35:42;;;;;;;;;;;;;;;;;;5121621;28;20010;-45
2024/01/24 10:38:08;;;;;;;;;;;;;;;;;;5122557;27;19934;-46
2024/01/24 10:40:33;;;;;;;;;;;;;;;;;;5112745;27;20024;-43
2024/01/24 10:42:59;;;;;;;;;;;;;;;;;;5115947;28;20621;-44
2024/01/24 10:45:25;;;;;;;;;;;;;;;;;;5117239;27;19979;-44
2024/01/24 10:47:51;;;;;;;;;;;;;;;;;;5117780;27;19927;-44
2024/01/24 10:50:17;;;;;;;;;;;;;;;;;;5112300;27;19934;-44
2024/01/24 10:52:43;;;;;;;;;;;;;;;;;;5106253;28;19931;-54
2024/01/24 10:55:11;;;;;;;;;;;;;;;;;;5108487;28;19957;-55
2024/01/24 10:57:36;;;;;;;;;;;;;;;;;;5106715;28;20374;-56
2024/01/24 11:00:02;;;;;;;;;;;;;;;;;;5101958;27;19938;-55
2024/01/24 11:02:27;;;;;;;;;;;;;;;;;;5104363;27;20552;-43
2024/01/24 11:04:52;;;;;;;;;;;;;;;;;;5107299;27;19935;-43
2024/01/24 11:07:18;;;;;;;;;;;;;;;;;;5102858;27;19934;-46
2024/01/24 11:09:45;;;;;;;;;;;;;;;;;;5041003;28;19928;-44
2024/01/24 11:12:11;;;;;;;;;;;;;;;;;;5045240;28;20013;-43
2024/01/24 11:14:36;;;;;;;;;;;;;;;;;;5050002;28;19936;-44
2024/01/24 11:17:02;;;;;;;;;;;;;;;;;;5049579;28;20752;-46
2024/01/24 11:19:28;;;;;;;;;;;;;;;;;;5049359;28;20023;-44
2024/01/24 11:21:53;;;;;;;;;;;;;;;;;;5048594;28;19978;-44
2024/01/24 11:24:19;;;;;;;;;;;;;;;;;;5047164;28;20031;-43
2024/01/24 11:26:44;;;;;;;;;;;;;;;;;;5053745;28;19938;-45
2024/01/24 11:29:10;;;;;;;;;;;;;;;;;;5108932;28;20268;-44
2024/01/24 11:31:38;;;;;;;;;;;;;;;;;;5106740;27;20065;-45
2024/01/24 11:34:04;;;;;;;;;;;;;;;;;;5107447;28;19931;-44
2024/01/24 11:36:29;;;;;;;;;;;;;;;;;;5108645;28;20018;-43
2024/01/24 11:38:55;;;;;;;;;;;;;;;;;;5099676;27;19971;-43
2024/01/24 11:41:20;;;;;;;;;;;;;;;;;;5097980;28;19928;-44
2024/01/24 11:43:48;;;;;;;;;;;;;;;;;;5104656;27;20398;-45
2024/01/24 11:46:13;;;;;;;;;;;;;;;;;;5102027;28;19938;-46
2024/01/24 11:48:39;;;;;;;;;;;;;;;;;;5100411;27;20018;-43
2024/01/24 11:51:05;;;;;;;;;;;;;;;;;;5102922;27;21204;-45
2024/01/24 11:53:31;;;;;;;;;;;;;;;;;;5104440;28;20056;-45
2024/01/24 11:55:56;;;;;;;;;;;;;;;;;;5106869;28;19938;-45
2024/01/24 11:58:23;;;;;;;;;;;;;;;;;;5105291;28;21463;-45
2024/01/24 12:00:48;;;;;;;;;;;;;;;;;;5106536;27;20377;-57
2024/01/24 12:03:15;;;;;;;;;;;;;;;;;;5107062;28;19971;-45
2024/01/24 12:05:41;;;;;;;;;;;;;;;;;;5105991;28;19975;-45
2024/01/24 12:08:06;;;;;;;;;;;;;;;;;;5108821;28;19935;-47
2024/01/24 12:10:32;;;;;;;;;;;;;;;;;;5106778;28;20081;-46
2024/01/24 12:12:57;;;;;;;;;;;;;;;;;;5106779;28;19931;-44
2024/01/24 12:15:22;;;;;;;;;;;;;;;;;;5106372;28;21101;-45
2024/01/24 12:17:48;;;;;;;;;;;;;;;;;;5105549;28;20020;-49
2024/01/24 12:20:16;;;;;;;;;;;;;;;;;;5101531;27;21300;-44
2024/01/24 12:22:41;;;;;;;;;;;;;;;;;;5102803;27;20018;-44
2024/01/24 12:25:08;;;;;;;;;;;;;;;;;;5106618;28;20038;-44
2024/01/24 12:27:34;;;;;;;;;;;;;;;;;;5104740;27;19936;-44
2024/01/24 12:29:59;;;;;;;;;;;;;;;;;;5104127;27;19984;-44
2024/01/24 12:32:24;;;;;;;;;;;;;;;;;;5105101;28;19928;-43
2024/01/24 12:34:51;;;;;;;;;;;;;;;;;;5103403;27;20445;-43
2024/01/24 12:37:16;;;;;;;;;;;;;;;;;;5104919;27;19931;-43
2024/01/24 12:39:42;;;;;;;;;;;;;;;;;;5105281;27;20911;-46
2024/01/24 12:42:07;;;;;;;;;;;;;;;;;;5103240;27;20013;-44
2024/01/24 12:44:34;;;;;;;;;;;;;;;;;;5104217;27;20030;-44
2024/01/24 12:47:00;;;;;;;;;;;;;;;;;;5103043;28;19927;-45
2024/01/24 12:49:26;;;;;;;;;;;;;;;;;;5106624;28;21016;-45
2024/01/24 12:51:52;;;;;;;;;;;;;;;;;;5105869;28;20398;-45
2024/01/24 12:54:17;;;;;;;;;;;;;;;;;;5108188;27;19985;-43
2024/01/24 12:56:43;;;;;;;;;;;;;;;;;;5110422;28;19931;-43
2024/01/24 12:59:08;;;;;;;;;;;;;;;;;;5109023;28;19933;-45
2024/01/24 13:01:34;;;;;;;;;;;;;;;;;;5109192;28;19970;-43
2024/01/24 13:03:59;;;;;;;;;;;;;;;;;;5105257;27;19923;-56
2024/01/24 13:06:26;;;;;;;;;;;;;;;;;;5108707;28;19938;-44
2024/01/24 13:08:52;;;;;;;;;;;;;;;;;;5106946;27;19945;-45
2024/01/24 13:11:17;;;;;;;;;;;;;;;;;;5109929;27;20209;-45
2024/01/24 13:13:43;;;;;;;;;;;;;;;;;;5113560;28;19963;-43
2024/01/24 13:16:08;;;;;;;;;;;;;;;;;;5112299;28;20343;-44
2024/01/24 13:18:34;;;;;;;;;;;;;;;;;;5111245;28;20342;-43
2024/01/24 13:20:59;;;;;;;;;;;;;;;;;;5107916;27;20465;-43
2024/01/24 13:23:25;;;;;;;;;;;;;;;;;;5108603;28;19927;-44
2024/01/24 13:25:50;;;;;;;;;;;;;;;;;;5107960;28;20320;-44
2024/01/24 13:28:16;;;;;;;;;;;;;;;;;;5108991;28;19938;-43
2024/01/24 13:30:43;;;;;;;;;;;;;;;;;;5109242;28;20010;-44
2024/01/24 13:33:09;;;;;;;;;;;;;;;;;;5116082;28;20000;-46
2024/01/24 13:35:35;;;;;;;;;;;;;;;;;;5118178;28;19932;-45
2024/01/24 13:38:01;;;;;;;;;;;;;;;;;;5115309;28;19927;-43
2024/01/24 13:40:26;;;;;;;;;;;;;;;;;;5116997;28;20107;-43
2024/01/24 13:42:52;;;;;;;;;;;;;;;;;;5118743;27;19923;-44
2024/01/24 13:45:17;;;;;;;;;;;;;;;;;;5123306;28;20316;-44
2024/01/24 13:47:43;;;;;;;;;;;;;;;;;;5126464;28;19923;-45
2024/01/24 13:50:09;;;;;;;;;;;;;;;;;;5125642;28;19935;-44
2024/01/24 13:52:34;;;;;;;;;;;;;;;;;;5108504;27;19988;-44
2024/01/24 13:55:00;;;;;;;;;;;;;;;;;;5108562;28;20636;-43
2024/01/24 13:57:26;;;;;;;;;;;;;;;;;;5109287;28;20507;-44
2024/01/24 13:59:51;;;;;;;;;;;;;;;;;;5108083;27;20400;-44
2024/01/24 14:02:17;;;;;;;;;;;;;;;;;;5107370;28;20069;-43
2024/01/24 14:04:42;;;;;;;;;;;;;;;;;;5109560;28;20386;-44
2024/01/24 14:07:08;;;;;;;;;;;;;;;;;;5109827;28;19992;-43
2024/01/24 14:09:33;;;;;;;;;;;;;;;;;;5108184;28;19931;-46
2024/01/24 14:12:02;;;;;;;;;;;;;;;;;;5108180;28;19942;-44
2024/01/24 14:14:28;;;;;;;;;;;;;;;;;;5110668;28;19923;-43
2024/01/24 14:16:55;;;;;;;;;;;;;;;;;;5111950;28;19931;-42
2024/01/24 14:19:21;;;;;;;;;;;;;;;;;;5110229;27;19973;-42
2024/01/24 14:21:46;;;;;;;;;;;;;;;;;;5111526;28;19946;-45
2024/01/24 14:24:12;;;;;;;;;;;;;;;;;;5094618;28;19931;-44
2024/01/24 14:26:37;;;;;;;;;;;;;;;;;;5109975;28;19934;-43
2024/01/24 14:29:03;;;;;;;;;;;;;;;;;;5122573;28;20343;-43
2024/01/24 14:31:28;;;;;;;;;;;;;;;;;;5124093;28;20392;-44
2024/01/24 14:33:55;;;;;;;;;;;;;;;;;;5122488;28;19927;-43
2024/01/24 14:36:21;;;;;;;;;;;;;;;;;;5118288;28;19928;-43
2024/01/24 14:38:46;;;;;;;;;;;;;;;;;;5117847;28;19927;-43
2024/01/24 14:41:11;;;;;;;;;;;;;;;;;;5115906;28;20268;-44
2024/01/24 14:43:37;;;;;;;;;;;;;;;;;;5116506;28;20306;-43
2024/01/24 14:46:03;;;;;;;;;;;;;;;;;;5123203;28;20017;-42
2024/01/24 14:48:29;;;;;;;;;;;;;;;;;;5123483;28;19935;-43
2024/01/24 14:50:54;;;;;;;;;;;;;;;;;;5118454;28;19992;-45
2024/01/24 14:53:20;;;;;;;;;;;;;;;;;;5120963;28;20018;-43
2024/01/24 14:55:45;;;;;;;;;;;;;;;;;;5116826;27;19923;-44
2024/01/24 14:58:11;;;;;;;;;;;;;;;;;;5120231;28;19923;-42
2024/01/24 15:00:36;;;;;;;;;;;;;;;;;;5118574;27;19927;-43
2024/01/24 15:03:03;;;;;;;;;;;;;;;;;;5116650;28;19924;-43
2024/01/24 15:05:29;;;;;;;;;;;;;;;;;;5118819;27;19950;-43
2024/01/24 15:07:54;;;;;;;;;;;;;;;;;;5119658;28;20414;-43
2024/01/24 15:10:22;;;;;;;;;;;;;;;;;;5122872;28;20346;-43
2024/01/24 15:12:47;;;;;;;;;;;;;;;;;;5120591;28;20005;-43
2024/01/24 15:15:13;;;;;;;;;;;;;;;;;;5124437;28;20258;-42
2024/01/24 15:17:38;;;;;;;;;;;;;;;;;;5122626;28;19992;-42
2024/01/24 15:20:04;;;;;;;;;;;;;;;;;;5123162;28;19978;-43
2024/01/24 15:22:30;;;;;;;;;;;;;;;;;;5119585;28;20696;-43
2024/01/24 15:24:55;;;;;;;;;;;;;;;;;;5120105;28;20332;-42
2024/01/24 15:27:23;;;;;;;;;;;;;;;;;;5120578;28;20383;-43
2024/01/24 15:29:49;;;;;;;;;;;;;;;;;;5116561;28;19930;-44
2024/01/24 15:32:14;;;;;;;;;;;;;;;;;;5118541;28;19927;-44
2024/01/24 15:34:39;;;;;;;;;;;;;;;;;;5121836;28;20071;-43
2024/01/24 15:37:05;;;;;;;;;;;;;;;;;;5116303;28;19992;-42
2024/01/24 15:39:31;;;;;;;;;;;;;;;;;;5118476;28;20018;-43
2024/01/24 15:42:00;;;;;;;;;;;;;;;;;;5119948;28;20354;-43
2024/01/24 15:44:25;;;;;;;;;;;;;;;;;;5120931;28;20394;-43
2024/01/24 15:46:50;;;;;;;;;;;;;;;;;;5121974;28;20000;-43
2024/01/24 15:49:16;;;;;;;;;;;;;;;;;;5123373;28;19927;-43
2024/01/24 15:51:41;;;;;;;;;;;;;;;;;;5119014;28;20022;-43
2024/01/24 15:54:07;;;;;;;;;;;;;;;;;;5121134;28;19924;-42
2024/01/24 15:56:32;;;;;;;;;;;;;;;;;;5124236;28;20018;-44
2024/01/24 15:58:58;;;;;;;;;;;;;;;;;;5122576;28;19989;-43
2024/01/24 16:01:24;;;;;;;;;;;;;;;;;;5122146;28;20472;-43
2024/01/24 16:03:49;;;;;;;;;;;;;;;;;;5115367;28;20011;-45
2024/01/24 16:06:16;;;;;;;;;;;;;;;;;;5118122;28;20015;-43
2024/01/24 16:08:41;;;;;;;;;;;;;;;;;;5117360;27;19923;-43
2024/01/24 16:11:06;;;;;;;;;;;;;;;;;;5120347;28;20022;-43
2024/01/24 16:13:32;;;;;;;;;;;;;;;;;;5127347;28;19976;-43
2024/01/24 16:15:57;;;;;;;;;;;;;;;;;;5127007;27;19927;-44
2024/01/24 16:18:23;;;;;;;;;;;;;;;;;;5127883;28;19975;-43
2024/01/24 16:20:48;;;;;;;;;;;;;;;;;;5126669;28;20036;-43
2024/01/24 16:23:15;;;;;;;;;;;;;;;;;;5127216;28;20390;-44
2024/01/24 16:25:40;;;;;;;;;;;;;;;;;;5128010;28;19923;-44
2024/01/24 16:28:06;;;;;;;;;;;;;;;;;;5128198;28;19939;-45
2024/01/24 16:30:35;;;;;;;;;;;;;;;;;;5127741;28;19931;-43
2024/01/24 16:33:00;;;;;;;;;;;;;;;;;;5127229;28;20367;-43
2024/01/24 16:35:26;;;;;;;;;;;;;;;;;;5128427;28;19939;-43
2024/01/24 16:37:51;;;;;;;;;;;;;;;;;;5128220;28;20263;-43